Time;durP1;ratioP1;P1;durP2;ratioP2;P2;SDS_P1;SDS_P2;PMS_P1;PMS_P2;Temp;Humidity;BMP_temperature;BMP_pressure;BME280_temperature;BME280_humidity;BME280_pressure;Samples;Min_cycle;Max_cycle;Signal;HPM_P1;HPM_P2
2023/08/02 00:01:11;;;;;;;;;;;;;;;19.65;75.57;98686.09;4455841;32;35759;-81
2023/08/02 00:03:39;;;;;;;;;;;;;;;19.73;75.65;98684.66;4460934;32;34993;-84
2023/08/02 00:06:10;;;;;;;;;;;;;;;19.61;75.08;98695.97;4463597;32;34160;-83
2023/08/02 00:08:42;;;;;;;;;;;;;;;19.49;76.01;98700.25;4463276;32;33132;-82
2023/08/02 00:11:15;;;;;;;;;;;;;;;19.49;75.03;98702.88;4459035;32;33879;-83
2023/08/02 00:13:45;;;;;;;;;;;;;;;19.21;76.94;98697.72;4458114;32;33664;-82
2023/08/02 00:16:14;;;;;;;;;;;;;;;19.37;76.22;98716.84;4455810;32;34159;-82
2023/08/02 00:18:43;;;;;;;;;;;;;;;19.48;76.12;98729.31;4460403;32;33056;-80
2023/08/02 00:21:15;;;;;;;;;;;;;;;19.45;76.31;98730.34;4457230;32;33422;-82
2023/08/02 00:23:44;;;;;;;;;;;;;;;19.70;75.21;98732.25;4457236;32;34341;-81
2023/08/02 00:26:13;;;;;;;;;;;;;;;19.55;75.89;98734.06;4458669;32;34189;-83
2023/08/02 00:28:43;;;;;;;;;;;;;;;19.45;75.82;98750.53;4466696;32;33286;-81
2023/08/02 00:31:20;;;;;;;;;;;;;;;19.72;74.50;98742.66;4462753;32;34676;-81
2023/08/02 00:33:49;;;;;;;;;;;;;;;19.58;75.17;98747.00;4458788;32;34268;-81
2023/08/02 00:36:18;;;;;;;;;;;;;;;19.58;74.62;98740.91;4460151;32;33535;-80
2023/08/02 00:38:47;;;;;;;;;;;;;;;19.56;73.91;98740.16;4459047;32;33416;-84
2023/08/02 00:41:17;;;;;;;;;;;;;;;19.48;74.42;98743.28;4464471;32;33701;-82
2023/08/02 00:43:53;;;;;;;;;;;;;;;19.48;74.55;98740.66;4460645;32;33831;-80
2023/08/02 00:46:24;;;;;;;;;;;;;;;19.37;75.55;98738.72;4464143;32;33519;-84
2023/08/02 00:48:52;;;;;;;;;;;;;;;19.28;75.16;98735.84;4461908;32;33932;-80
2023/08/02 00:51:21;;;;;;;;;;;;;;;19.09;75.92;98739.66;4459044;32;33828;-83
2023/08/02 00:54:02;;;;;;;;;;;;;;;18.99;76.29;98728.00;4463078;32;33930;-80
2023/08/02 00:56:33;;;;;;;;;;;;;;;19.04;76.22;98728.59;4458892;32;33633;-83
2023/08/02 00:59:01;;;;;;;;;;;;;;;18.92;77.27;98724.09;4461546;32;33323;-83
2023/08/02 01:01:33;;;;;;;;;;;;;;;19.22;75.30;98728.34;4456646;32;33098;-82
2023/08/02 01:04:02;;;;;;;;;;;;;;;19.11;76.17;98737.78;4464559;32;33810;-80
2023/08/02 01:06:39;;;;;;;;;;;;;;;18.80;76.98;98740.62;4464384;32;34417;-80
2023/08/02 01:09:11;;;;;;;;;;;;;;;19.09;75.95;98746.69;4459528;32;34062;-81
2023/08/02 01:11:44;;;;;;;;;;;;;;;19.06;76.59;98749.50;4458097;32;34411;-82
2023/08/02 01:14:15;;;;;;;;;;;;;;;19.03;76.22;98749.69;4455766;32;35328;-80
2023/08/02 01:16:44;;;;;;;;;;;;;;;18.76;77.99;98753.94;4457690;32;35475;-80
2023/08/02 01:19:13;;;;;;;;;;;;;;;18.86;77.28;98753.38;4458111;32;33018;-85
2023/08/02 01:21:43;;;;;;;;;;;;;;;18.67;77.83;98753.63;4458322;32;33983;-82
2023/08/02 01:24:18;;;;;;;;;;;;;;;18.74;77.98;98749.69;4459111;32;34708;-81
2023/08/02 01:26:48;;;;;;;;;;;;;;;18.68;78.08;98750.94;4457756;32;33486;-84
2023/08/02 01:29:19;;;;;;;;;;;;;;;18.49;79.18;98756.47;4463811;32;32019;-82
2023/08/02 01:31:48;;;;;;;;;;;;;;;18.89;77.74;98755.81;4458830;32;34501;-83
2023/08/02 01:34:18;;;;;;;;;;;;;;;18.26;80.86;98751.72;4455167;32;34356;-82
2023/08/02 01:36:48;;;;;;;;;;;;;;;18.79;78.47;98749.44;4463183;32;35991;-80
2023/08/02 01:39:21;;;;;;;;;;;;;;;18.65;79.06;98751.13;4460807;32;32299;-82
2023/08/02 01:41:49;;;;;;;;;;;;;;;19.08;76.60;98752.88;4459250;32;34456;-82
2023/08/02 01:44:24;;;;;;;;;;;;;;;18.90;78.50;98749.63;4458195;32;34819;-83
2023/08/02 01:46:52;;;;;;;;;;;;;;;19.05;77.40;98748.66;4461994;32;34911;-80
2023/08/02 01:49:21;;;;;;;;;;;;;;;19.24;76.62;98753.59;4457879;32;32766;-81
2023/08/02 01:51:52;;;;;;;;;;;;;;;19.43;74.72;98753.28;4462771;32;34204;-84
2023/08/02 01:54:26;;;;;;;;;;;;;;;19.30;75.19;98762.88;4454826;32;33445;-82
2023/08/02 01:56:54;;;;;;;;;;;;;;;19.23;75.83;98761.56;4460453;32;34935;-85
2023/08/02 01:59:24;;;;;;;;;;;;;;;19.31;74.02;98756.69;4455214;32;33330;-79
2023/08/02 02:01:53;;;;;;;;;;;;;;;19.15;75.40;98751.56;4463585;32;33837;-86
2023/08/02 02:04:26;;;;;;;;;;;;;;;19.25;74.86;98757.06;4459473;32;33995;-81
2023/08/02 02:06:56;;;;;;;;;;;;;;;19.49;73.17;98755.50;4459069;32;33541;-81
2023/08/02 02:09:25;;;;;;;;;;;;;;;19.59;72.43;98759.19;4459030;32;33143;-82
2023/08/02 02:11:56;;;;;;;;;;;;;;;19.50;72.34;98754.56;4458919;32;34575;-82
2023/08/02 02:14:26;;;;;;;;;;;;;;;19.14;73.58;98755.97;4464652;32;33842;-81
2023/08/02 02:16:59;;;;;;;;;;;;;;;19.27;73.50;98757.81;4463904;32;34057;-84
2023/08/02 02:19:28;;;;;;;;;;;;;;;19.08;74.16;98764.22;4461342;32;33443;-82
2023/08/02 02:22:01;;;;;;;;;;;;;;;18.93;74.75;98766.03;4460863;32;32702;-81
2023/08/02 02:24:30;;;;;;;;;;;;;;;18.73;75.61;98772.50;4466070;32;34144;-81
2023/08/02 02:27:00;;;;;;;;;;;;;;;18.67;76.87;98772.88;4469126;32;32833;-80
2023/08/02 02:29:34;;;;;;;;;;;;;;;18.86;76.00;98769.16;4461078;32;32930;-81
2023/08/02 02:32:02;;;;;;;;;;;;;;;19.00;74.68;98769.13;4460899;32;33472;-81
2023/08/02 02:34:31;;;;;;;;;;;;;;;18.85;75.62;98780.63;4462603;32;34871;-82
2023/08/02 02:37:05;;;;;;;;;;;;;;;18.80;75.46;98788.78;4465769;32;33576;-81
2023/08/02 02:39:34;;;;;;;;;;;;;;;18.84;75.53;98782.37;4459969;32;33894;-81
2023/08/02 02:42:03;;;;;;;;;;;;;;;18.75;75.91;98781.13;4460823;32;34728;-81
2023/08/02 02:44:41;;;;;;;;;;;;;;;18.70;76.88;98782.34;4459083;32;33632;-84
2023/08/02 02:47:10;;;;;;;;;;;;;;;18.68;76.49;98782.47;4460611;32;34471;-81
2023/08/02 02:49:41;;;;;;;;;;;;;;;18.91;75.74;98780.22;4463263;32;33314;-80
2023/08/02 02:52:11;;;;;;;;;;;;;;;18.85;75.69;98786.72;4458408;32;33639;-83
2023/08/02 02:54:40;;;;;;;;;;;;;;;18.89;75.92;98789.97;4458983;32;34132;-81
2023/08/02 02:57:09;;;;;;;;;;;;;;;19.04;75.13;98796.94;4458035;32;33887;-80
2023/08/02 02:59:38;;;;;;;;;;;;;;;19.20;74.24;98794.16;4464820;32;33284;-85
2023/08/02 03:02:07;;;;;;;;;;;;;;;19.13;74.33;98803.38;4458053;32;34056;-84
2023/08/02 03:04:36;;;;;;;;;;;;;;;18.96;75.22;98802.63;4459610;32;34905;-81
2023/08/02 03:07:07;;;;;;;;;;;;;;;19.03;74.55;98818.03;4464845;32;34089;-82
2023/08/02 03:09:37;;;;;;;;;;;;;;;19.10;73.92;98814.09;4460271;32;32999;-81
2023/08/02 03:12:09;;;;;;;;;;;;;;;19.11;74.24;98815.78;4462906;32;34213;-82
2023/08/02 03:14:38;;;;;;;;;;;;;;;19.09;73.72;98818.53;4457345;32;34763;-81
2023/08/02 03:17:06;;;;;;;;;;;;;;;19.07;73.72;98809.88;4462157;32;34187;-85
2023/08/02 03:19:35;;;;;;;;;;;;;;;19.06;73.58;98823.09;4456013;32;33040;-80
2023/08/02 03:22:06;;;;;;;;;;;;;;;19.10;73.31;98821.97;4462736;32;33923;-81
2023/08/02 03:24:36;;;;;;;;;;;;;;;19.21;72.74;98822.16;4455092;32;34609;-83
2023/08/02 03:27:12;;;;;;;;;;;;;;;19.22;72.44;98830.91;4459989;32;34199;-82
2023/08/02 03:29:41;;;;;;;;;;;;;;;19.17;72.67;98828.56;4461017;32;33188;-84
2023/08/02 03:32:11;;;;;;;;;;;;;;;18.88;74.39;98827.72;4455411;32;35497;-81
2023/08/02 03:34:39;;;;;;;;;;;;;;;18.98;73.43;98836.72;4463603;32;34237;-85
2023/08/02 03:37:08;;;;;;;;;;;;;;;18.81;74.45;98842.16;4459032;32;33887;-82
2023/08/02 03:39:39;;;;;;;;;;;;;;;19.01;73.79;98841.78;4457766;32;33490;-81
2023/08/02 03:42:08;;;;;;;;;;;;;;;19.12;72.61;98826.22;4457546;32;35743;-80
2023/08/02 03:44:41;;;;;;;;;;;;;;;19.23;71.92;98825.53;4461700;32;34336;-82
2023/08/02 03:47:10;;;;;;;;;;;;;;;19.01;73.29;98836.53;4458772;32;34041;-80
2023/08/02 03:49:41;;;;;;;;;;;;;;;18.99;73.42;98835.78;4461691;32;34176;-83
2023/08/02 03:54:45;;;;;;;;;;;;;;;18.95;73.75;98836.91;4462992;32;35057;-82
2023/08/02 03:57:17;;;;;;;;;;;;;;;18.95;74.26;98837.75;4465035;32;34078;-80
2023/08/02 03:59:45;;;;;;;;;;;;;;;19.08;73.95;98837.00;4453536;32;34021;-80
2023/08/02 04:02:14;;;;;;;;;;;;;;;18.86;74.77;98833.06;4457376;32;34916;-81
2023/08/02 04:04:45;;;;;;;;;;;;;;;19.21;73.08;98843.22;4462585;32;34721;-81
2023/08/02 04:07:19;;;;;;;;;;;;;;;19.38;71.50;98840.38;4463721;32;33728;-80
2023/08/02 04:09:49;;;;;;;;;;;;;;;19.18;72.78;98832.84;4461885;32;33150;-81
2023/08/02 04:12:19;;;;;;;;;;;;;;;19.04;73.66;98825.84;4458457;32;35475;-82
2023/08/02 04:14:48;;;;;;;;;;;;;;;19.08;73.69;98835.22;4458543;32;33316;-82
2023/08/02 04:17:25;;;;;;;;;;;;;;;19.08;74.13;98832.59;4460880;32;33869;-82
2023/08/02 04:19:54;;;;;;;;;;;;;;;19.25;73.81;98838.59;4461249;32;33535;-80
2023/08/02 04:22:23;;;;;;;;;;;;;;;19.29;73.79;98846.19;4457498;32;34373;-79
2023/08/02 04:24:53;;;;;;;;;;;;;;;19.10;74.66;98848.28;4457374;32;33537;-81
2023/08/02 04:27:24;;;;;;;;;;;;;;;19.16;75.19;98853.13;4458748;32;34133;-81
2023/08/02 04:29:53;;;;;;;;;;;;;;;19.26;74.60;98851.66;4464904;32;33595;-81
2023/08/02 04:32:22;;;;;;;;;;;;;;;19.49;73.25;98851.97;4463623;32;32921;-82
2023/08/02 04:34:53;;;;;;;;;;;;;;;19.61;72.76;98859.94;4458637;32;34635;-84
2023/08/02 04:37:22;;;;;;;;;;;;;;;19.54;73.57;98856.00;4456265;32;32395;-82
2023/08/02 04:39:52;;;;;;;;;;;;;;;19.77;72.00;98856.38;4456451;32;33071;-82
2023/08/02 04:42:21;;;;;;;;;;;;;;;19.79;72.56;98849.22;4464247;32;33948;-79
2023/08/02 04:44:55;;;;;;;;;;;;;;;19.76;72.32;98844.97;4459134;32;33543;-83
2023/08/02 04:47:31;;;;;;;;;;;;;;;19.95;71.99;98846.44;4462840;32;34283;-82
2023/08/02 04:50:00;;;;;;;;;;;;;;;20.16;70.92;98854.72;4461744;32;32132;-81
2023/08/02 04:52:29;;;;;;;;;;;;;;;20.46;70.16;98849.19;4455466;32;34686;-83
2023/08/02 04:55:00;;;;;;;;;;;;;;;20.87;68.73;98849.03;4465181;32;33291;-81
2023/08/02 04:57:35;;;;;;;;;;;;;;;21.91;63.99;98850.50;4461888;32;33491;-84
2023/08/02 05:00:06;;;;;;;;;;;;;;;21.61;64.18;98850.94;4456058;32;33818;-84
2023/08/02 05:02:36;;;;;;;;;;;;;;;22.41;61.60;98853.88;4458663;32;34413;-83
2023/08/02 05:05:05;;;;;;;;;;;;;;;22.40;62.16;98851.31;4465620;32;33729;-83
2023/08/02 05:07:34;;;;;;;;;;;;;;;23.46;58.76;98851.09;4460667;32;33695;-84
2023/08/02 05:10:10;;;;;;;;;;;;;;;24.22;55.06;98852.81;4459996;32;32920;-82
2023/08/02 05:12:39;;;;;;;;;;;;;;;24.49;53.60;98854.16;4459427;32;33950;-82
2023/08/02 05:15:08;;;;;;;;;;;;;;;24.72;52.84;98861.97;4460131;32;34179;-83
2023/08/02 05:17:37;;;;;;;;;;;;;;;24.56;52.89;98859.81;4465230;32;33797;-82
2023/08/02 05:20:09;;;;;;;;;;;;;;;24.35;54.44;98849.16;4460006;32;32898;-83
2023/08/02 05:22:39;;;;;;;;;;;;;;;24.65;53.46;98851.91;4464294;32;33604;-81
2023/08/02 05:25:12;;;;;;;;;;;;;;;25.29;51.34;98871.25;4463024;32;33758;-81
2023/08/02 05:27:43;;;;;;;;;;;;;;;25.37;50.93;98868.78;4465192;32;33374;-82
2023/08/02 05:30:12;;;;;;;;;;;;;;;25.24;51.95;98865.50;4461224;32;33351;-84
2023/08/02 05:32:44;;;;;;;;;;;;;;;25.49;50.60;98866.84;4459084;32;34009;-83
2023/08/02 05:35:12;;;;;;;;;;;;;;;25.37;51.13;98867.91;4457350;32;34536;-81
2023/08/02 05:37:41;;;;;;;;;;;;;;;25.18;52.54;98874.84;4457419;32;34590;-82
2023/08/02 05:40:12;;;;;;;;;;;;;;;24.90;52.65;98871.03;4461134;32;32836;-81
2023/08/02 05:42:47;;;;;;;;;;;;;;;24.71;52.71;98874.41;4457526;32;33378;-82
2023/08/02 05:45:15;;;;;;;;;;;;;;;24.70;53.41;98865.63;4458302;32;34223;-84
2023/08/02 05:47:45;;;;;;;;;;;;;;;24.77;53.58;98875.72;4458492;32;33885;-83
2023/08/02 05:50:14;;;;;;;;;;;;;;;24.67;53.20;98873.84;4464989;32;32359;-82
2023/08/02 05:52:47;;;;;;;;;;;;;;;24.63;53.62;98882.19;4464059;32;34673;-82
2023/08/02 05:55:18;;;;;;;;;;;;;;;24.42;54.09;98871.53;4460582;32;34958;-84
2023/08/02 05:57:52;;;;;;;;;;;;;;;24.42;54.35;98877.66;4456075;32;34991;-83
2023/08/02 06:00:20;;;;;;;;;;;;;;;23.89;55.37;98882.94;4456805;32;33058;-81
2023/08/02 06:02:49;;;;;;;;;;;;;;;23.94;54.28;98882.56;4462599;32;34180;-81
2023/08/02 06:05:18;;;;;;;;;;;;;;;23.76;54.86;98890.19;4458244;32;33790;-81
2023/08/02 06:07:47;;;;;;;;;;;;;;;23.60;55.72;98894.03;4457587;32;35035;-83
2023/08/02 06:10:25;;;;;;;;;;;;;;;23.45;56.80;98899.72;4458666;32;34020;-81
2023/08/02 06:12:54;;;;;;;;;;;;;;;23.31;57.06;98898.97;4460934;32;34129;-81
2023/08/02 06:15:23;;;;;;;;;;;;;;;23.13;57.39;98898.63;4455444;32;33249;-79
2023/08/02 06:18:00;;;;;;;;;;;;;;;22.74;58.93;98899.88;4464268;32;34236;-83
2023/08/02 06:20:29;;;;;;;;;;;;;;;22.59;60.05;98904.47;4459986;32;32645;-80
2023/08/02 06:22:58;;;;;;;;;;;;;;;22.25;61.26;98907.00;4453349;32;34042;-79
2023/08/02 06:25:28;;;;;;;;;;;;;;;22.20;62.88;98910.91;4464998;32;33843;-80
2023/08/02 06:27:57;;;;;;;;;;;;;;;22.18;62.76;98913.69;4463973;32;33604;-80
2023/08/02 06:30:27;;;;;;;;;;;;;;;22.02;62.75;98913.13;4459928;32;32712;-81
2023/08/02 06:32:57;;;;;;;;;;;;;;;21.64;62.95;98916.72;4459764;32;33888;-84
2023/08/02 06:35:29;;;;;;;;;;;;;;;21.35;64.10;98921.38;4461492;32;33683;-81
2023/08/02 06:38:00;;;;;;;;;;;;;;;21.49;63.33;98916.84;4460918;32;34124;-81
2023/08/02 06:40:31;;;;;;;;;;;;;;;21.38;65.05;98916.72;4457685;32;33526;-80
2023/08/02 06:43:04;;;;;;;;;;;;;;;21.65;65.73;98928.94;4457797;32;33355;-83
2023/08/02 06:45:32;;;;;;;;;;;;;;;21.49;64.54;98934.47;4458866;32;34652;-81
2023/08/02 06:48:01;;;;;;;;;;;;;;;21.23;65.29;98928.34;4464661;32;34170;-81
2023/08/02 06:50:36;;;;;;;;;;;;;;;21.16;66.07;98920.00;4461424;32;31665;-81
2023/08/02 06:53:06;;;;;;;;;;;;;;;21.14;66.37;98918.44;4459636;32;34639;-80
2023/08/02 06:55:37;;;;;;;;;;;;;;;21.31;65.59;98924.22;4460447;32;32886;-80
2023/08/02 06:58:05;;;;;;;;;;;;;;;21.50;66.89;98925.59;4457435;32;33802;-81
2023/08/02 07:00:34;;;;;;;;;;;;;;;21.50;65.98;98930.88;4463625;32;33209;-81
2023/08/02 07:03:05;;;;;;;;;;;;;;;21.46;65.68;98924.16;4457231;32;34240;-81
2023/08/02 07:05:37;;;;;;;;;;;;;;;21.62;64.91;98930.00;4462923;32;32883;-81
2023/08/02 07:08:10;;;;;;;;;;;;;;;21.51;66.55;98935.22;4460752;32;33782;-82
2023/08/02 07:10:40;;;;;;;;;;;;;;;21.57;65.75;98936.56;4465503;32;34469;-80
2023/08/02 07:13:10;;;;;;;;;;;;;;;21.96;64.53;98938.16;4467140;32;33959;-81
2023/08/02 07:15:39;;;;;;;;;;;;;;;22.10;64.34;98934.53;4461669;32;34129;-84
2023/08/02 07:18:15;;;;;;;;;;;;;;;22.04;63.29;98937.62;4456504;32;33688;-82
2023/08/02 07:20:44;;;;;;;;;;;;;;;21.73;64.11;98938.03;4455571;32;33727;-80
2023/08/02 07:23:14;;;;;;;;;;;;;;;22.03;61.95;98930.62;4458953;32;34200;-80
2023/08/02 07:25:44;;;;;;;;;;;;;;;22.07;63.71;98932.94;4459019;32;33811;-83
2023/08/02 07:28:15;;;;;;;;;;;;;;;22.01;61.81;98925.50;4458970;32;34940;-81
2023/08/02 07:30:45;;;;;;;;;;;;;;;21.68;62.51;98929.59;4457659;32;33426;-80
2023/08/02 07:33:13;;;;;;;;;;;;;;;22.19;60.66;98930.38;4459567;32;34208;-83
2023/08/02 07:35:42;;;;;;;;;;;;;;;22.11;62.70;98931.78;4463245;32;32642;-81
2023/08/02 07:38:21;;;;;;;;;;;;;;;;;;;;;
2023/08/02 07:40:51;;;;;;;;;;;;;;;22.47;59.59;98923.91;4458849;32;33150;-82
2023/08/02 07:43:20;;;;;;;;;;;;;;;22.55;59.72;98921.56;4457812;32;33855;-80
2023/08/02 07:45:48;;;;;;;;;;;;;;;22.76;59.41;98930.50;4465982;32;33407;-82
2023/08/02 07:48:17;;;;;;;;;;;;;;;22.78;58.49;98927.75;4459262;32;33786;-81
2023/08/02 07:50:49;;;;;;;;;;;;;;;22.62;56.41;98924.59;4454874;32;32482;-80
2023/08/02 07:53:22;;;;;;;;;;;;;;;22.60;57.78;98929.16;4456467;32;33682;-82
2023/08/02 07:56:01;;;;;;;;;;;;;;;22.46;56.35;98938.94;4461441;32;34254;-80
2023/08/02 07:58:33;;;;;;;;;;;;;;;22.67;56.42;98933.00;4462700;32;33812;-80
2023/08/02 08:01:08;;;;;;;;;;;;;;;22.80;55.60;98931.94;4458319;32;32745;-80
2023/08/02 08:03:37;;;;;;;;;;;;;;;23.08;56.98;98929.06;4452731;32;34832;-80
2023/08/02 08:06:10;;;;;;;;;;;;;;;22.97;54.63;98928.00;4461542;32;34267;-81
2023/08/02 08:08:39;;;;;;;;;;;;;;;23.17;54.61;98923.03;4457593;32;33715;-82
2023/08/02 08:11:11;;;;;;;;;;;;;;;22.93;55.32;98917.78;4463799;32;32927;-81
2023/08/02 08:13:39;;;;;;;;;;;;;;;23.10;55.12;98916.53;4456426;32;33478;-80
2023/08/02 08:16:08;;;;;;;;;;;;;;;23.07;55.83;98920.25;4452592;32;34342;-80
2023/08/02 08:18:40;;;;;;;;;;;;;;;23.23;54.61;98925.22;4459149;32;33831;-83
2023/08/02 08:21:15;;;;;;;;;;;;;;;22.88;55.56;98919.94;4466351;32;32616;-81
2023/08/02 08:23:43;;;;;;;;;;;;;;;23.18;54.00;98919.44;4451460;32;34562;-81
2023/08/02 08:26:16;;;;;;;;;;;;;;;23.20;54.53;98922.81;4452155;32;34782;-79
2023/08/02 08:28:44;;;;;;;;;;;;;;;23.20;54.62;98913.06;4461367;32;34009;-80
2023/08/02 08:31:14;;;;;;;;;;;;;;;23.23;55.46;98927.03;4458833;32;33535;-80
2023/08/02 08:33:43;;;;;;;;;;;;;;;23.35;53.63;98916.31;4454733;32;34104;-80
2023/08/02 08:36:16;;;;;;;;;;;;;;;23.52;52.37;98922.09;4458238;32;34654;-79
2023/08/02 08:38:44;;;;;;;;;;;;;;;23.46;53.38;98919.91;4461356;32;33705;-80
2023/08/02 08:41:19;;;;;;;;;;;;;;;23.45;54.34;98923.53;4450918;32;33227;-82
2023/08/02 08:43:47;;;;;;;;;;;;;;;23.82;53.38;98932.94;4467959;32;33664;-81
2023/08/02 08:46:16;;;;;;;;;;;;;;;23.78;51.07;98934.13;4456969;32;33762;-82
2023/08/02 08:48:46;;;;;;;;;;;;;;;23.69;52.08;98926.87;4454032;32;34690;-80
2023/08/02 08:51:14;;;;;;;;;;;;;;;23.57;52.96;98931.34;4458600;32;33317;-80
2023/08/02 08:53:50;;;;;;;;;;;;;;;23.93;52.67;98944.47;4455606;32;34430;-80
2023/08/02 08:56:22;;;;;;;;;;;;;;;24.12;50.33;98934.06;4458073;32;34120;-82
2023/08/02 08:58:53;;;;;;;;;;;;;;;23.69;52.00;98953.38;4448561;32;34004;-80
2023/08/02 09:01:25;;;;;;;;;;;;;;;23.93;51.12;98937.34;4457956;32;34262;-81
2023/08/02 09:03:53;;;;;;;;;;;;;;;23.88;51.96;98939.53;4452574;32;34155;-81
2023/08/02 09:08:55;;;;;;;;;;;;;;;24.29;51.24;98932.69;4467171;32;34342;-79
2023/08/02 09:11:28;;;;;;;;;;;;;;;24.40;51.34;98927.31;4462507;32;33438;-81
2023/08/02 09:14:10;;;;;;;;;;;;;;;24.46;48.03;98920.72;4458232;32;34183;-81
2023/08/02 09:16:55;;;;;;;;;;;;;;;24.44;48.50;98919.97;4453919;32;33970;-82
2023/08/02 09:19:26;;;;;;;;;;;;;;;24.30;49.27;98918.44;4459957;32;33139;-81
2023/08/02 09:22:10;;;;;;;;;;;;;;;24.64;46.98;98921.81;4461180;32;32532;-80
2023/08/02 09:24:43;;;;;;;;;;;;;;;24.67;47.24;98923.41;4459156;32;33909;-81
2023/08/02 09:27:20;;;;;;;;;;;;;;;24.80;47.18;98928.50;4453566;32;34285;-79
2023/08/02 09:29:49;;;;;;;;;;;;;;;24.92;47.34;98923.00;4451541;32;34888;-79
2023/08/02 09:32:18;;;;;;;;;;;;;;;24.99;47.88;98920.66;4459182;32;33323;-79
2023/08/02 09:34:47;;;;;;;;;;;;;;;24.88;46.46;98920.72;4455267;32;34107;-79
2023/08/02 09:37:16;;;;;;;;;;;;;;;24.89;46.44;98919.78;4464223;32;34114;-78
2023/08/02 09:39:49;;;;;;;;;;;;;;;25.26;45.87;98920.13;4449656;32;33870;-81
2023/08/02 09:42:21;;;;;;;;;;;;;;;25.22;42.87;98916.06;4457800;32;33539;-82
2023/08/02 09:44:51;;;;;;;;;;;;;;;25.01;45.23;98921.38;4459036;32;33228;-80
2023/08/02 09:47:20;;;;;;;;;;;;;;;25.30;44.34;98920.72;4454646;32;34965;-83
2023/08/02 09:50:02;;;;;;;;;;;;;;;25.20;43.12;98920.69;4446980;32;33036;-81
2023/08/02 09:52:31;;;;;;;;;;;;;;;25.25;44.45;98922.91;4447557;32;32653;-83
2023/08/02 09:55:00;;;;;;;;;;;;;;;25.24;43.94;98929.22;4459231;32;35203;-79
2023/08/02 09:57:35;;;;;;;;;;;;;;;25.17;43.49;98928.88;4458479;32;33593;-79
2023/08/02 10:00:10;;;;;;;;;;;;;;;25.26;44.56;98927.25;4450568;32;33303;-78
2023/08/02 10:02:39;;;;;;;;;;;;;;;25.30;43.18;98926.87;4447842;32;33589;-81
2023/08/02 10:05:12;;;;;;;;;;;;;;;25.43;43.52;98929.28;4460652;32;34062;-79
2023/08/02 10:07:41;;;;;;;;;;;;;;;25.60;42.67;98921.69;4459188;32;34833;-79
2023/08/02 10:10:13;;;;;;;;;;;;;;;25.88;41.36;98942.22;4461318;32;33933;-80
2023/08/02 10:12:48;;;;;;;;;;;;;;;25.47;42.26;98928.06;4458150;32;33189;-82
2023/08/02 10:15:26;;;;;;;;;;;;;;;25.59;43.71;98927.94;4455147;32;34171;-81
2023/08/02 10:17:55;;;;;;;;;;;;;;;25.89;43.83;98933.25;4454221;32;34299;-80
2023/08/02 10:20:25;;;;;;;;;;;;;;;26.24;44.07;98928.41;4460687;32;33930;-79
2023/08/02 10:22:53;;;;;;;;;;;;;;;26.31;40.08;98925.06;4463484;32;33682;-80
2023/08/02 10:25:22;;;;;;;;;;;;;;;26.17;41.00;98917.50;4459017;32;33773;-79
2023/08/02 10:27:56;;;;;;;;;;;;;;;25.97;40.82;98913.97;4464209;32;34982;-81
2023/08/02 10:30:24;;;;;;;;;;;;;;;26.31;40.34;98909.13;4461448;32;33728;-79
2023/08/02 10:33:08;;;;;;;;;;;;;;;26.38;39.54;98907.56;4466212;32;31663;-78
2023/08/02 10:35:56;;;;;;;;;;;;;;;26.36;38.99;98903.34;4461883;32;33912;-79
2023/08/02 10:38:48;;;;;;;;;;;;;;;26.64;38.55;98895.53;4465349;32;34792;-78
2023/08/02 10:41:17;;;;;;;;;;;;;;;26.60;39.45;98897.63;4452733;32;34193;-81
2023/08/02 10:44:05;;;;;;;;;;;;;;;26.75;40.28;98898.06;4461849;32;33246;-79
2023/08/02 10:46:37;;;;;;;;;;;;;;;26.81;39.38;98897.47;4464094;32;34046;-79
2023/08/02 10:49:24;;;;;;;;;;;;;;;26.76;39.76;98894.41;4469054;32;34674;-79
2023/08/02 10:51:57;;;;;;;;;;;;;;;26.95;39.00;98894.38;4468715;32;33976;-81
2023/08/02 10:54:26;;;;;;;;;;;;;;;27.18;38.42;98888.69;4464395;32;32908;-82
2023/08/02 10:59:47;;;;;;;;;;;;;;;26.93;38.08;98880.34;4463573;32;33719;-82
2023/08/02 11:02:18;;;;;;;;;;;;;;;27.41;35.68;98878.53;4462939;32;34255;-79
2023/08/02 11:04:47;;;;;;;;;;;;;;;27.45;32.47;98879.94;4468993;32;33070;-80
2023/08/02 11:07:21;;;;;;;;;;;;;;;27.00;33.10;98876.12;4464573;32;34026;-79
2023/08/02 11:09:51;;;;;;;;;;;;;;;27.17;33.37;98871.03;4458860;32;34684;-80
2023/08/02 11:12:23;;;;;;;;;;;;;;;27.45;33.31;98869.28;4462119;32;34115;-80
2023/08/02 11:14:52;;;;;;;;;;;;;;;27.55;32.80;98861.22;4464263;32;33176;-81
2023/08/02 11:17:25;;;;;;;;;;;;;;;27.59;33.99;98867.91;4466194;32;34510;-80
2023/08/02 11:19:56;;;;;;;;;;;;;;;27.91;34.54;98864.81;4460518;32;34843;-78
2023/08/02 11:22:35;;;;;;;;;;;;;;;27.97;32.54;98853.53;4461157;32;33924;-79
2023/08/02 11:25:06;;;;;;;;;;;;;;;27.67;33.61;98846.72;4463584;32;32696;-78
2023/08/02 11:27:36;;;;;;;;;;;;;;;27.82;32.99;98839.88;4467317;32;34725;-80
2023/08/02 11:30:11;;;;;;;;;;;;;;;27.54;34.71;98836.38;4463479;32;33686;-79
2023/08/02 11:32:43;;;;;;;;;;;;;;;27.82;32.63;98825.69;4461282;32;34479;-80
2023/08/02 11:35:17;;;;;;;;;;;;;;;27.62;34.24;98833.84;4461670;32;32862;-78
2023/08/02 11:37:45;;;;;;;;;;;;;;;27.91;34.87;98827.50;4452115;32;34705;-82
2023/08/02 11:40:21;;;;;;;;;;;;;;;27.76;35.59;98828.97;4453007;32;33908;-78
2023/08/02 11:42:55;;;;;;;;;;;;;;;27.84;34.52;98821.09;4462220;32;33385;-79
2023/08/02 11:45:30;;;;;;;;;;;;;;;27.95;32.27;98833.34;4461166;32;33640;-78
2023/08/02 11:48:05;;;;;;;;;;;;;;;28.13;32.44;98823.53;4459600;32;34773;-79
2023/08/02 11:50:38;;;;;;;;;;;;;;;28.46;32.99;98819.31;4462801;32;34504;-81
2023/08/02 11:53:08;;;;;;;;;;;;;;;28.70;31.16;98813.28;4465042;32;33865;-83
2023/08/02 11:55:40;;;;;;;;;;;;;;;28.79;31.87;98800.84;4463814;32;33762;-80
2023/08/02 11:58:09;;;;;;;;;;;;;;;28.76;30.04;98803.00;4464834;32;34960;-78
2023/08/02 12:00:41;;;;;;;;;;;;;;;28.93;30.76;98804.75;4462770;32;34089;-78
2023/08/02 12:03:12;;;;;;;;;;;;;;;29.18;30.13;98805.72;4468028;32;35194;-78
2023/08/02 12:05:42;;;;;;;;;;;;;;;28.98;30.89;98801.59;4467965;32;33322;-82
2023/08/02 12:08:11;;;;;;;;;;;;;;;29.27;30.46;98803.94;4466646;32;33902;-79
2023/08/02 12:10:40;;;;;;;;;;;;;;;29.37;29.19;98795.78;4463009;32;35139;-78
2023/08/02 12:13:10;;;;;;;;;;;;;;;29.78;29.92;98794.88;4455626;32;33970;-82
2023/08/02 12:15:49;;;;;;;;;;;;;;;29.91;29.79;98809.59;4468043;32;32958;-79
2023/08/02 12:18:19;;;;;;;;;;;;;;;29.99;29.61;98801.59;4457010;32;33816;-80
2023/08/02 12:20:53;;;;;;;;;;;;;;;30.15;27.38;98809.59;4462663;32;33674;-81
2023/08/02 12:23:31;;;;;;;;;;;;;;;30.08;27.48;98811.28;4462376;32;34654;-81
2023/08/02 12:26:00;;;;;;;;;;;;;;;30.19;26.73;98813.63;4468097;32;33152;-79
2023/08/02 12:28:42;;;;;;;;;;;;;;;29.76;28.40;98815.59;4465443;32;34846;-79
2023/08/02 12:31:10;;;;;;;;;;;;;;;29.80;28.34;98805.44;4454654;32;34129;-79
2023/08/02 12:33:41;;;;;;;;;;;;;;;29.93;28.90;98794.22;4457916;32;33614;-79
2023/08/02 12:36:10;;;;;;;;;;;;;;;30.02;28.21;98793.25;4462684;32;33480;-81
2023/08/02 12:38:40;;;;;;;;;;;;;;;30.01;28.46;98796.94;4458873;32;34877;-79
2023/08/02 12:41:27;;;;;;;;;;;;;;;;;;;;;
2023/08/02 12:44:18;;;;;;;;;;;;;;;30.07;27.97;98803.44;4463114;32;34198;-80
2023/08/02 12:46:47;;;;;;;;;;;;;;;30.54;29.41;98800.94;4459242;32;32791;-80
2023/08/02 12:49:23;;;;;;;;;;;;;;;30.44;29.92;98796.75;4453541;32;33942;-80
2023/08/02 12:51:52;;;;;;;;;;;;;;;30.59;28.65;98801.25;4458470;32;33646;-77
2023/08/02 12:54:25;;;;;;;;;;;;;;;30.56;28.29;98796.22;4458307;32;35123;-80
2023/08/02 12:56:53;;;;;;;;;;;;;;;30.54;28.67;98800.94;4452126;32;34010;-82
2023/08/02 12:59:25;;;;;;;;;;;;;;;30.71;29.76;98791.03;4455250;32;33659;-82
2023/08/02 13:01:54;;;;;;;;;;;;;;;31.12;29.04;98790.94;4451339;32;33279;-80
2023/08/02 13:04:27;;;;;;;;;;;;;;;31.32;30.34;98790.50;4454771;32;33605;-80
2023/08/02 13:06:58;;;;;;;;;;;;;;;31.46;30.93;98779.88;4456855;32;34023;-79
2023/08/02 13:09:38;;;;;;;;;;;;;;;31.78;29.26;98785.22;4452459;32;34479;-80
2023/08/02 13:12:10;;;;;;;;;;;;;;;32.31;28.40;98789.66;4448293;32;33806;-79
2023/08/02 13:14:41;;;;;;;;;;;;;;;32.53;29.35;98795.19;4453694;32;35393;-81
2023/08/02 13:17:14;;;;;;;;;;;;;;;32.46;28.09;98800.44;4458854;32;34097;-81